sensor_id;sensor_type;location;lat;lon;timestamp;pressure;altitude;pressure_sealevel;temperature;humidity
72794;BME280;63436;26.334;50.194;2023-04-01T00:01:57;101104.75;;;24.34;38.66
72794;BME280;63436;26.334;50.194;2023-04-01T00:04:23;101111.36;;;24.34;38.29
72794;BME280;63436;26.334;50.194;2023-04-01T00:06:48;101109.24;;;24.66;38.10
72794;BME280;63436;26.334;50.194;2023-04-01T00:09:13;101111.20;;;23.59;39.30
72794;BME280;63436;26.334;50.194;2023-04-01T00:11:39;101114.32;;;24.79;37.53
72794;BME280;63436;26.334;50.194;2023-04-01T00:14:04;101113.58;;;24.55;37.58
72794;BME280;63436;26.334;50.194;2023-04-01T00:16:30;101111.67;;;24.25;38.54
72794;BME280;63436;26.334;50.194;2023-04-01T00:18:55;101109.96;;;24.91;37.06
72794;BME280;63436;26.334;50.194;2023-04-01T00:21:20;101109.53;;;23.59;38.36
72794;BME280;63436;26.334;50.194;2023-04-01T00:23:45;101112.49;;;23.20;38.75
72794;BME280;63436;26.334;50.194;2023-04-01T00:26:10;101103.47;;;23.25;39.04
72794;BME280;63436;26.334;50.194;2023-04-01T00:28:37;101109.01;;;24.96;36.49
72794;BME280;63436;26.334;50.194;2023-04-01T00:31:05;101107.57;;;24.84;35.81
72794;BME280;63436;26.334;50.194;2023-04-01T00:33:27;101116.30;;;24.65;36.55
72794;BME280;63436;26.334;50.194;2023-04-01T00:35:52;101112.98;;;24.54;36.73
72794;BME280;63436;26.334;50.194;2023-04-01T00:38:18;101111.54;;;24.86;36.61
72794;BME280;63436;26.334;50.194;2023-04-01T00:40:45;101109.57;;;25.92;35.68
72794;BME280;63436;26.334;50.194;2023-04-01T00:43:12;101111.22;;;23.26;38.91
72794;BME280;63436;26.334;50.194;2023-04-01T00:45:36;101101.35;;;24.25;37.86
72794;BME280;63436;26.334;50.194;2023-04-01T00:48:03;101120.29;;;24.20;38.14
72794;BME280;63436;26.334;50.194;2023-04-01T00:50:26;101127.38;;;24.99;37.09
72794;BME280;63436;26.334;50.194;2023-04-01T00:52:51;101133.87;;;25.57;36.25
72794;BME280;63436;26.334;50.194;2023-04-01T00:55:17;101135.75;;;24.10;38.44
72794;BME280;63436;26.334;50.194;2023-04-01T00:57:44;101146.55;;;24.30;39.26
72794;BME280;63436;26.334;50.194;2023-04-01T01:00:11;101150.08;;;23.34;40.56
72794;BME280;63436;26.334;50.194;2023-04-01T01:02:35;101157.57;;;23.08;40.96
72794;BME280;63436;26.334;50.194;2023-04-01T01:04:58;101153.32;;;24.44;39.39
72794;BME280;63436;26.334;50.194;2023-04-01T01:07:28;101160.31;;;23.90;40.47
72794;BME280;63436;26.334;50.194;2023-04-01T01:09:56;101161.82;;;24.35;39.69
72794;BME280;63436;26.334;50.194;2023-04-01T01:12:18;101168.55;;;23.68;40.50
72794;BME280;63436;26.334;50.194;2023-04-01T01:14:52;101164.46;;;24.02;40.41
72794;BME280;63436;26.334;50.194;2023-04-01T01:17:12;101167.09;;;23.46;40.85
72794;BME280;63436;26.334;50.194;2023-04-01T01:19:44;101171.81;;;23.54;40.82
72794;BME280;63436;26.334;50.194;2023-04-01T01:22:06;101178.85;;;22.87;42.03
72794;BME280;63436;26.334;50.194;2023-04-01T01:24:30;101187.18;;;23.05;41.79
72794;BME280;63436;26.334;50.194;2023-04-01T01:26:54;101192.48;;;23.74;40.74
72794;BME280;63436;26.334;50.194;2023-04-01T01:29:26;101197.18;;;23.44;41.40
72794;BME280;63436;26.334;50.194;2023-04-01T01:31:44;101195.50;;;24.07;40.53
72794;BME280;63436;26.334;50.194;2023-04-01T01:34:14;101193.84;;;23.45;41.36
72794;BME280;63436;26.334;50.194;2023-04-01T01:36:32;101209.08;;;24.70;39.58
72794;BME280;63436;26.334;50.194;2023-04-01T01:38:56;101211.18;;;23.91;41.16
72794;BME280;63436;26.334;50.194;2023-04-01T01:41:23;101208.50;;;23.33;41.67
72794;BME280;63436;26.334;50.194;2023-04-01T01:43:48;101219.38;;;24.26;40.07
72794;BME280;63436;26.334;50.194;2023-04-01T01:46:15;101227.65;;;24.79;39.38
72794;BME280;63436;26.334;50.194;2023-04-01T01:48:38;101235.68;;;24.69;39.20
72794;BME280;63436;26.334;50.194;2023-04-01T01:51:04;101233.60;;;24.15;40.12
72794;BME280;63436;26.334;50.194;2023-04-01T01:53:28;101234.21;;;24.73;39.37
72794;BME280;63436;26.334;50.194;2023-04-01T01:55:53;101237.17;;;23.16;41.54
72794;BME280;63436;26.334;50.194;2023-04-01T01:58:23;101238.63;;;24.56;39.55
72794;BME280;63436;26.334;50.194;2023-04-01T02:00:48;101248.41;;;24.06;40.08
72794;BME280;63436;26.334;50.194;2023-04-01T02:03:12;101258.26;;;24.26;40.15
72794;BME280;63436;26.334;50.194;2023-04-01T02:05:36;101256.85;;;23.81;40.14
72794;BME280;63436;26.334;50.194;2023-04-01T02:08:05;101258.86;;;23.24;40.73
72794;BME280;63436;26.334;50.194;2023-04-01T02:10:28;101268.27;;;23.46;40.32
72794;BME280;63436;26.334;50.194;2023-04-01T02:12:55;101272.50;;;25.02;38.01
72794;BME280;63436;26.334;50.194;2023-04-01T02:15:20;101271.20;;;24.00;39.56
72794;BME280;63436;26.334;50.194;2023-04-01T02:17:45;101275.38;;;24.08;39.14
72794;BME280;63436;26.334;50.194;2023-04-01T02:20:13;101280.25;;;25.33;37.50
72794;BME280;63436;26.334;50.194;2023-04-01T02:22:35;101283.20;;;23.10;40.35
72794;BME280;63436;26.334;50.194;2023-04-01T02:25:03;101283.95;;;24.22;38.24
72794;BME280;63436;26.334;50.194;2023-04-01T02:27:25;101286.55;;;23.81;39.11
72794;BME280;63436;26.334;50.194;2023-04-01T02:29:50;101278.86;;;24.24;38.65
72794;BME280;63436;26.334;50.194;2023-04-01T02:32:17;101282.41;;;24.28;39.62
72794;BME280;63436;26.334;50.194;2023-04-01T02:34:41;101295.47;;;23.56;40.62
72794;BME280;63436;26.334;50.194;2023-04-01T02:37:06;101300.08;;;23.93;39.98
72794;BME280;63436;26.334;50.194;2023-04-01T02:39:31;101308.92;;;23.55;40.54
72794;BME280;63436;26.334;50.194;2023-04-01T02:41:57;101306.00;;;23.43;40.89
72794;BME280;63436;26.334;50.194;2023-04-01T02:44:23;101320.45;;;23.56;41.16
72794;BME280;63436;26.334;50.194;2023-04-01T02:46:49;101309.12;;;24.12;40.06
72794;BME280;63436;26.334;50.194;2023-04-01T02:49:14;101318.53;;;24.31;40.18
72794;BME280;63436;26.334;50.194;2023-04-01T02:51:39;101315.11;;;24.09;40.25
72794;BME280;63436;26.334;50.194;2023-04-01T02:54:05;101316.43;;;24.52;39.53
72794;BME280;63436;26.334;50.194;2023-04-01T02:56:32;101329.70;;;24.67;39.42
72794;BME280;63436;26.334;50.194;2023-04-01T02:58:57;101343.08;;;23.03;41.61
72794;BME280;63436;26.334;50.194;2023-04-01T03:01:22;101350.94;;;24.16;40.08
72794;BME280;63436;26.334;50.194;2023-04-01T03:03:47;101348.15;;;24.04;39.57
72794;BME280;63436;26.334;50.194;2023-04-01T03:06:14;101351.99;;;23.45;40.89
72794;BME280;63436;26.334;50.194;2023-04-01T03:08:37;101362.26;;;24.09;40.01
72794;BME280;63436;26.334;50.194;2023-04-01T03:11:03;101373.42;;;23.55;39.66
72794;BME280;63436;26.334;50.194;2023-04-01T03:13:28;101374.34;;;24.34;38.35
72794;BME280;63436;26.334;50.194;2023-04-01T03:15:54;101376.25;;;23.87;38.47
72794;BME280;63436;26.334;50.194;2023-04-01T03:18:20;101385.28;;;23.23;39.38
72794;BME280;63436;26.334;50.194;2023-04-01T03:20:45;101388.98;;;23.78;38.28
72794;BME280;63436;26.334;50.194;2023-04-01T03:23:10;101393.14;;;23.46;38.17
72794;BME280;63436;26.334;50.194;2023-04-01T03:25:35;101401.31;;;24.45;36.96
72794;BME280;63436;26.334;50.194;2023-04-01T03:28:01;101415.16;;;24.61;36.73
72794;BME280;63436;26.334;50.194;2023-04-01T03:30:26;101421.21;;;24.28;36.78
72794;BME280;63436;26.334;50.194;2023-04-01T03:32:52;101418.95;;;23.49;37.73
72794;BME280;63436;26.334;50.194;2023-04-01T03:35:18;101426.26;;;23.43;37.87
72794;BME280;63436;26.334;50.194;2023-04-01T03:37:43;101438.71;;;24.72;36.13
72794;BME280;63436;26.334;50.194;2023-04-01T03:40:09;101429.37;;;22.96;38.28
72794;BME280;63436;26.334;50.194;2023-04-01T03:42:33;101444.78;;;23.77;36.85
72794;BME280;63436;26.334;50.194;2023-04-01T03:44:58;101447.69;;;24.23;36.10
72794;BME280;63436;26.334;50.194;2023-04-01T03:47:24;101455.15;;;23.63;37.08
72794;BME280;63436;26.334;50.194;2023-04-01T03:49:49;101451.77;;;23.25;37.27
72794;BME280;63436;26.334;50.194;2023-04-01T03:52:15;101458.43;;;24.98;34.82
72794;BME280;63436;26.334;50.194;2023-04-01T03:54:40;101465.19;;;23.45;36.55
72794;BME280;63436;26.334;50.194;2023-04-01T03:57:06;101472.97;;;22.51;37.80
72794;BME280;63436;26.334;50.194;2023-04-01T03:59:31;101480.78;;;24.73;34.83
72794;BME280;63436;26.334;50.194;2023-04-01T04:01:56;101482.39;;;25.46;33.56
72794;BME280;63436;26.334;50.194;2023-04-01T04:04:21;101482.56;;;24.65;34.90
72794;BME280;63436;26.334;50.194;2023-04-01T04:06:47;101485.46;;;23.58;35.65
72794;BME280;63436;26.334;50.194;2023-04-01T04:09:13;101488.13;;;23.58;36.13
72794;BME280;63436;26.334;50.194;2023-04-01T04:11:38;101485.62;;;24.74;34.60
72794;BME280;63436;26.334;50.194;2023-04-01T04:14:04;101483.97;;;25.76;32.62
72794;BME280;63436;26.334;50.194;2023-04-01T04:16:29;101487.34;;;26.15;32.02
72794;BME280;63436;26.334;50.194;2023-04-01T04:18:55;101499.20;;;23.72;35.03
72794;BME280;63436;26.334;50.194;2023-04-01T04:21:20;101504.21;;;24.26;34.68
72794;BME280;63436;26.334;50.194;2023-04-01T04:23:45;101499.75;;;23.67;35.84
72794;BME280;63436;26.334;50.194;2023-04-01T04:26:13;101503.22;;;25.25;34.13
72794;BME280;63436;26.334;50.194;2023-04-01T04:28:37;101510.69;;;24.44;34.66
72794;BME280;63436;26.334;50.194;2023-04-01T04:31:02;101514.02;;;24.80;34.39
72794;BME280;63436;26.334;50.194;2023-04-01T04:33:27;101513.78;;;24.08;35.91
72794;BME280;63436;26.334;50.194;2023-04-01T04:35:56;101526.79;;;24.27;35.44
72794;BME280;63436;26.334;50.194;2023-04-01T04:38:18;101522.62;;;25.19;33.01
72794;BME280;63436;26.334;50.194;2023-04-01T04:40:44;101526.96;;;25.08;32.93
72794;BME280;63436;26.334;50.194;2023-04-01T04:43:11;101540.78;;;25.03;32.06
72794;BME280;63436;26.334;50.194;2023-04-01T04:45:35;101545.29;;;25.51;31.56
72794;BME280;63436;26.334;50.194;2023-04-01T04:48:01;101538.95;;;24.97;32.17
72794;BME280;63436;26.334;50.194;2023-04-01T04:50:26;101544.01;;;25.79;31.58
72794;BME280;63436;26.334;50.194;2023-04-01T04:52:51;101553.04;;;25.36;32.46
72794;BME280;63436;26.334;50.194;2023-04-01T04:55:17;101553.56;;;24.68;32.93
72794;BME280;63436;26.334;50.194;2023-04-01T04:57:42;101554.98;;;25.11;32.72
72794;BME280;63436;26.334;50.194;2023-04-01T05:00:08;101556.25;;;24.57;32.20
72794;BME280;63436;26.334;50.194;2023-04-01T05:02:33;101554.55;;;24.89;30.64
72794;BME280;63436;26.334;50.194;2023-04-01T05:04:59;101547.71;;;26.78;29.39
72794;BME280;63436;26.334;50.194;2023-04-01T05:07:25;101556.31;;;26.23;30.38
72794;BME280;63436;26.334;50.194;2023-04-01T05:09:50;101553.65;;;25.68;30.04
72794;BME280;63436;26.334;50.194;2023-04-01T05:12:16;101554.93;;;25.13;30.42
72794;BME280;63436;26.334;50.194;2023-04-01T05:14:42;101564.34;;;25.87;33.65
72794;BME280;63436;26.334;50.194;2023-04-01T05:17:09;101565.75;;;25.88;29.52
72794;BME280;63436;26.334;50.194;2023-04-01T05:19:32;101565.08;;;26.47;30.89
72794;BME280;63436;26.334;50.194;2023-04-01T05:21:58;101573.08;;;24.72;32.69
72794;BME280;63436;26.334;50.194;2023-04-01T05:24:23;101570.55;;;25.15;32.05
72794;BME280;63436;26.334;50.194;2023-04-01T05:26:48;101573.99;;;25.15;32.42
72794;BME280;63436;26.334;50.194;2023-04-01T05:29:14;101568.58;;;24.90;33.01
72794;BME280;63436;26.334;50.194;2023-04-01T05:31:39;101569.89;;;25.92;30.46
72794;BME280;63436;26.334;50.194;2023-04-01T05:34:05;101571.28;;;24.60;32.55
72794;BME280;63436;26.334;50.194;2023-04-01T05:36:31;101574.58;;;25.60;29.99
72794;BME280;63436;26.334;50.194;2023-04-01T05:38:56;101570.90;;;25.86;30.22
72794;BME280;63436;26.334;50.194;2023-04-01T05:41:21;101578.06;;;24.33;31.71
72794;BME280;63436;26.334;50.194;2023-04-01T05:43:47;101578.89;;;25.30;30.98
72794;BME280;63436;26.334;50.194;2023-04-01T05:46:12;101578.88;;;23.28;31.83
72794;BME280;63436;26.334;50.194;2023-04-01T05:48:37;101582.06;;;25.37;29.40
72794;BME280;63436;26.334;50.194;2023-04-01T05:51:04;101576.71;;;25.41;28.69
72794;BME280;63436;26.334;50.194;2023-04-01T05:53:29;101584.90;;;25.29;29.81
72794;BME280;63436;26.334;50.194;2023-04-01T05:55:54;101588.55;;;24.69;30.81
72794;BME280;63436;26.334;50.194;2023-04-01T05:58:19;101594.74;;;24.30;30.87
72794;BME280;63436;26.334;50.194;2023-04-01T06:00:44;101597.18;;;25.26;29.17
72794;BME280;63436;26.334;50.194;2023-04-01T06:03:09;101591.67;;;26.35;27.60
72794;BME280;63436;26.334;50.194;2023-04-01T06:05:39;101594.14;;;25.40;28.25
72794;BME280;63436;26.334;50.194;2023-04-01T06:08:08;101595.78;;;24.61;29.84
72794;BME280;63436;26.334;50.194;2023-04-01T06:10:35;101597.19;;;25.18;29.69
72794;BME280;63436;26.334;50.194;2023-04-01T06:12:57;101589.60;;;25.71;28.24
72794;BME280;63436;26.334;50.194;2023-04-01T06:15:24;101596.53;;;25.00;28.29
72794;BME280;63436;26.334;50.194;2023-04-01T06:17:56;101594.22;;;25.12;28.29
72794;BME280;63436;26.334;50.194;2023-04-01T06:20:19;101592.13;;;25.25;27.96
72794;BME280;63436;26.334;50.194;2023-04-01T06:22:49;101598.64;;;26.11;27.03
72794;BME280;63436;26.334;50.194;2023-04-01T06:27:35;101599.09;;;24.89;25.85
72794;BME280;63436;26.334;50.194;2023-04-01T06:30:02;101597.61;;;24.53;26.78
72794;BME280;63436;26.334;50.194;2023-04-01T06:32:37;101598.09;;;25.03;26.56
72794;BME280;63436;26.334;50.194;2023-04-01T06:34:51;101595.41;;;24.96;26.62
72794;BME280;63436;26.334;50.194;2023-04-01T06:37:18;101599.95;;;24.92;26.83
72794;BME280;63436;26.334;50.194;2023-04-01T06:39:46;101596.97;;;25.77;26.05
72794;BME280;63436;26.334;50.194;2023-04-01T06:42:07;101598.25;;;26.20;24.86
72794;BME280;63436;26.334;50.194;2023-04-01T06:44:26;101594.61;;;26.09;26.97
72794;BME280;63436;26.334;50.194;2023-04-01T06:46:50;101588.51;;;25.15;27.37
72794;BME280;63436;26.334;50.194;2023-04-01T06:49:24;101593.52;;;25.05;26.62
72794;BME280;63436;26.334;50.194;2023-04-01T06:51:46;101590.63;;;24.54;27.78
72794;BME280;63436;26.334;50.194;2023-04-01T06:54:09;101595.89;;;24.58;26.60
72794;BME280;63436;26.334;50.194;2023-04-01T06:56:30;101589.68;;;25.10;25.86
72794;BME280;63436;26.334;50.194;2023-04-01T06:58:58;101583.11;;;25.45;25.54
72794;BME280;63436;26.334;50.194;2023-04-01T07:01:25;101594.82;;;25.85;25.41
72794;BME280;63436;26.334;50.194;2023-04-01T07:03:49;101592.98;;;25.45;25.84
72794;BME280;63436;26.334;50.194;2023-04-01T07:06:14;101588.58;;;25.35;25.70
72794;BME280;63436;26.334;50.194;2023-04-01T07:08:37;101593.56;;;24.55;25.55
72794;BME280;63436;26.334;50.194;2023-04-01T07:11:03;101591.02;;;25.45;24.67
72794;BME280;63436;26.334;50.194;2023-04-01T07:13:30;101596.68;;;25.10;24.67
72794;BME280;63436;26.334;50.194;2023-04-01T07:16:03;101597.83;;;25.26;24.63
72794;BME280;63436;26.334;50.194;2023-04-01T07:18:19;101599.76;;;25.64;24.75
72794;BME280;63436;26.334;50.194;2023-04-01T07:20:42;101591.34;;;24.81;24.54
72794;BME280;63436;26.334;50.194;2023-04-01T07:23:15;101599.39;;;25.08;24.27
72794;BME280;63436;26.334;50.194;2023-04-01T07:25:37;101598.92;;;24.74;24.84
72794;BME280;63436;26.334;50.194;2023-04-01T07:28:03;101598.47;;;24.96;24.08
72794;BME280;63436;26.334;50.194;2023-04-01T07:30:47;101604.92;;;24.89;23.53
72794;BME280;63436;26.334;50.194;2023-04-01T07:32:56;101601.91;;;25.36;23.58
72794;BME280;63436;26.334;50.194;2023-04-01T07:35:25;101612.31;;;24.21;25.50
72794;BME280;63436;26.334;50.194;2023-04-01T07:37:51;101607.47;;;24.60;24.50
72794;BME280;63436;26.334;50.194;2023-04-01T07:40:20;101613.69;;;24.00;24.73
72794;BME280;63436;26.334;50.194;2023-04-01T07:42:40;101608.34;;;24.89;23.68
72794;BME280;63436;26.334;50.194;2023-04-01T07:45:04;101600.28;;;25.44;22.35
72794;BME280;63436;26.334;50.194;2023-04-01T07:47:36;101603.36;;;25.59;23.17
72794;BME280;63436;26.334;50.194;2023-04-01T07:49:57;101604.35;;;24.81;23.31
72794;BME280;63436;26.334;50.194;2023-04-01T07:52:19;101599.16;;;24.63;24.06
72794;BME280;63436;26.334;50.194;2023-04-01T07:54:45;101601.53;;;25.02;23.46
72794;BME280;63436;26.334;50.194;2023-04-01T07:57:10;101595.00;;;25.82;21.91
72794;BME280;63436;26.334;50.194;2023-04-01T07:59:38;101590.41;;;26.27;23.03
72794;BME280;63436;26.334;50.194;2023-04-01T08:02:10;101586.26;;;26.01;22.93
72794;BME280;63436;26.334;50.194;2023-04-01T08:04:34;101590.81;;;25.20;21.19
72794;BME280;63436;26.334;50.194;2023-04-01T08:06:52;101583.46;;;24.78;22.51
72794;BME280;63436;26.334;50.194;2023-04-01T08:09:18;101584.57;;;24.46;23.29
72794;BME280;63436;26.334;50.194;2023-04-01T08:11:59;101574.42;;;26.73;22.21
72794;BME280;63436;26.334;50.194;2023-04-01T08:14:09;101576.23;;;25.64;22.75
72794;BME280;63436;26.334;50.194;2023-04-01T08:16:33;101579.50;;;27.26;21.02
72794;BME280;63436;26.334;50.194;2023-04-01T08:18:59;101574.21;;;25.77;23.01
72794;BME280;63436;26.334;50.194;2023-04-01T08:21:23;101573.19;;;25.05;23.29
72794;BME280;63436;26.334;50.194;2023-04-01T08:23:48;101567.27;;;25.43;22.01
72794;BME280;63436;26.334;50.194;2023-04-01T08:26:14;101556.79;;;24.85;23.98
72794;BME280;63436;26.334;50.194;2023-04-01T08:28:39;101553.08;;;26.61;21.88
72794;BME280;63436;26.334;50.194;2023-04-01T08:31:04;101547.15;;;26.94;22.62
72794;BME280;63436;26.334;50.194;2023-04-01T08:33:27;101545.75;;;25.31;23.83
72794;BME280;63436;26.334;50.194;2023-04-01T08:35:55;101548.78;;;25.33;23.97
72794;BME280;63436;26.334;50.194;2023-04-01T08:38:20;101548.21;;;25.23;23.42
72794;BME280;63436;26.334;50.194;2023-04-01T08:40:54;101543.15;;;26.51;22.39
72794;BME280;63436;26.334;50.194;2023-04-01T08:43:10;101537.36;;;25.75;25.37
72794;BME280;63436;26.334;50.194;2023-04-01T08:45:41;101536.87;;;25.94;23.72
72794;BME280;63436;26.334;50.194;2023-04-01T08:48:18;101538.41;;;25.79;23.74
72794;BME280;63436;26.334;50.194;2023-04-01T08:52:58;101537.61;;;25.68;23.18
72794;BME280;63436;26.334;50.194;2023-04-01T08:55:27;101545.67;;;25.42;24.32
72794;BME280;63436;26.334;50.194;2023-04-01T08:57:49;101546.07;;;25.52;22.59
72794;BME280;63436;26.334;50.194;2023-04-01T09:00:15;101543.10;;;25.95;22.58
72794;BME280;63436;26.334;50.194;2023-04-01T09:05:08;101533.43;;;25.18;24.74
72794;BME280;63436;26.334;50.194;2023-04-01T09:07:33;101527.12;;;25.09;24.78
72794;BME280;63436;26.334;50.194;2023-04-01T09:12:26;101526.92;;;24.96;23.26
72794;BME280;63436;26.334;50.194;2023-04-01T09:14:52;101519.22;;;25.60;23.84
72794;BME280;63436;26.334;50.194;2023-04-01T09:19:42;101512.39;;;25.75;23.32
72794;BME280;63436;26.334;50.194;2023-04-01T09:24:32;101502.28;;;24.94;24.11
72794;BME280;63436;26.334;50.194;2023-04-01T09:27:01;101499.04;;;25.29;25.28
72794;BME280;63436;26.334;50.194;2023-04-01T09:29:24;101498.50;;;25.33;24.75
72794;BME280;63436;26.334;50.194;2023-04-01T09:31:48;101491.99;;;25.71;23.62
72794;BME280;63436;26.334;50.194;2023-04-01T09:34:19;101487.62;;;26.36;22.29
72794;BME280;63436;26.334;50.194;2023-04-01T09:38:57;101482.99;;;25.87;22.82
72794;BME280;63436;26.334;50.194;2023-04-01T09:41:27;101485.33;;;26.14;21.91
72794;BME280;63436;26.334;50.194;2023-04-01T09:43:57;101483.01;;;25.78;22.84
72794;BME280;63436;26.334;50.194;2023-04-01T09:46:19;101474.64;;;27.13;22.04
72794;BME280;63436;26.334;50.194;2023-04-01T09:48:50;101480.37;;;26.49;22.35
72794;BME280;63436;26.334;50.194;2023-04-01T09:51:06;101474.83;;;27.26;21.02
72794;BME280;63436;26.334;50.194;2023-04-01T09:53:40;101469.59;;;25.76;22.50
72794;BME280;63436;26.334;50.194;2023-04-01T09:56:05;101473.64;;;24.67;23.40
72794;BME280;63436;26.334;50.194;2023-04-01T10:10:42;101458.01;;;24.67;23.82
72794;BME280;63436;26.334;50.194;2023-04-01T10:13:00;101454.32;;;26.32;22.26
72794;BME280;63436;26.334;50.194;2023-04-01T10:17:53;101451.22;;;25.70;22.87
72794;BME280;63436;26.334;50.194;2023-04-01T10:27:41;101420.05;;;25.70;22.10
72794;BME280;63436;26.334;50.194;2023-04-01T10:39:34;101422.46;;;27.19;21.12
72794;BME280;63436;26.334;50.194;2023-04-01T10:49:37;101402.86;;;24.09;24.41
72794;BME280;63436;26.334;50.194;2023-04-01T10:56:39;101396.19;;;23.48;24.51
72794;BME280;63436;26.334;50.194;2023-04-01T10:59:15;101385.96;;;26.62;21.97
72794;BME280;63436;26.334;50.194;2023-04-01T11:06:24;101382.15;;;24.69;23.47
72794;BME280;63436;26.334;50.194;2023-04-01T11:13:43;101370.41;;;25.60;20.81
72794;BME280;63436;26.334;50.194;2023-04-01T11:23:17;101370.71;;;24.91;21.99
72794;BME280;63436;26.334;50.194;2023-04-01T11:25:47;101369.32;;;26.03;21.57
72794;BME280;63436;26.334;50.194;2023-04-01T11:28:19;101368.32;;;25.85;21.03
72794;BME280;63436;26.334;50.194;2023-04-01T11:30:33;101363.31;;;25.81;21.35
72794;BME280;63436;26.334;50.194;2023-04-01T11:32:56;101366.73;;;27.27;20.26
72794;BME280;63436;26.334;50.194;2023-04-01T11:35:31;101364.68;;;26.05;20.89
72794;BME280;63436;26.334;50.194;2023-04-01T11:37:43;101356.28;;;26.90;20.41
72794;BME280;63436;26.334;50.194;2023-04-01T11:40:16;101354.18;;;25.29;21.41
72794;BME280;63436;26.334;50.194;2023-04-01T11:42:38;101357.54;;;24.55;21.37
72794;BME280;63436;26.334;50.194;2023-04-01T11:45:01;101356.45;;;25.79;21.34
72794;BME280;63436;26.334;50.194;2023-04-01T11:49:55;101368.86;;;24.53;22.35
72794;BME280;63436;26.334;50.194;2023-04-01T11:52:21;101366.88;;;25.47;21.74
72794;BME280;63436;26.334;50.194;2023-04-01T11:54:50;101362.25;;;26.10;21.44
72794;BME280;63436;26.334;50.194;2023-04-01T11:57:15;101364.18;;;24.82;21.68
72794;BME280;63436;26.334;50.194;2023-04-01T11:59:41;101364.56;;;24.20;22.08
72794;BME280;63436;26.334;50.194;2023-04-01T12:02:01;101363.77;;;25.44;21.41
72794;BME280;63436;26.334;50.194;2023-04-01T12:06:49;101356.28;;;27.02;20.00
72794;BME280;63436;26.334;50.194;2023-04-01T12:09:16;101359.51;;;25.39;21.31
72794;BME280;63436;26.334;50.194;2023-04-01T12:11:44;101365.15;;;24.58;22.42
72794;BME280;63436;26.334;50.194;2023-04-01T12:14:07;101364.38;;;25.84;20.84
72794;BME280;63436;26.334;50.194;2023-04-01T12:16:41;101361.09;;;25.25;21.11
72794;BME280;63436;26.334;50.194;2023-04-01T12:18:54;101361.86;;;25.81;21.30
72794;BME280;63436;26.334;50.194;2023-04-01T12:21:25;101357.73;;;25.57;20.67
72794;BME280;63436;26.334;50.194;2023-04-01T12:26:25;101351.43;;;24.25;23.11
72794;BME280;63436;26.334;50.194;2023-04-01T12:28:45;101365.63;;;25.30;21.12
72794;BME280;63436;26.334;50.194;2023-04-01T12:31:10;101372.96;;;25.61;20.94
72794;BME280;63436;26.334;50.194;2023-04-01T12:35:58;101372.70;;;25.08;21.88
72794;BME280;63436;26.334;50.194;2023-04-01T12:38:22;101369.23;;;24.62;21.59
72794;BME280;63436;26.334;50.194;2023-04-01T12:40:51;101378.31;;;25.17;21.37
72794;BME280;63436;26.334;50.194;2023-04-01T12:43:19;101372.47;;;24.41;22.04
72794;BME280;63436;26.334;50.194;2023-04-01T12:45:33;101376.90;;;25.83;21.64
72794;BME280;63436;26.334;50.194;2023-04-01T12:48:10;101375.72;;;24.21;22.33
72794;BME280;63436;26.334;50.194;2023-04-01T12:50:32;101374.58;;;24.43;22.54
72794;BME280;63436;26.334;50.194;2023-04-01T12:52:59;101374.24;;;25.40;21.74
72794;BME280;63436;26.334;50.194;2023-04-01T12:55:23;101373.63;;;25.56;21.25
72794;BME280;63436;26.334;50.194;2023-04-01T12:57:49;101373.07;;;25.23;20.94
72794;BME280;63436;26.334;50.194;2023-04-01T13:00:13;101372.77;;;25.59;20.21
72794;BME280;63436;26.334;50.194;2023-04-01T13:02:41;101370.81;;;23.75;22.64
72794;BME280;63436;26.334;50.194;2023-04-01T13:07:35;101373.42;;;25.71;21.38
72794;BME280;63436;26.334;50.194;2023-04-01T13:09:53;101376.48;;;22.89;23.37
72794;BME280;63436;26.334;50.194;2023-04-01T13:12:29;101373.28;;;23.76;23.44
72794;BME280;63436;26.334;50.194;2023-04-01T13:14:50;101378.06;;;23.97;22.33
72794;BME280;63436;26.334;50.194;2023-04-01T13:17:09;101380.47;;;23.61;22.25
72794;BME280;63436;26.334;50.194;2023-04-01T13:19:36;101377.86;;;24.29;21.64
72794;BME280;63436;26.334;50.194;2023-04-01T13:21:58;101376.92;;;24.15;21.90
72794;BME280;63436;26.334;50.194;2023-04-01T13:24:32;101379.11;;;24.80;21.94
72794;BME280;63436;26.334;50.194;2023-04-01T13:26:53;101382.41;;;25.07;21.42
72794;BME280;63436;26.334;50.194;2023-04-01T13:29:15;101384.03;;;23.72;22.24
72794;BME280;63436;26.334;50.194;2023-04-01T13:31:48;101380.14;;;24.16;22.34
72794;BME280;63436;26.334;50.194;2023-04-01T13:34:15;101384.61;;;24.05;22.76
72794;BME280;63436;26.334;50.194;2023-04-01T13:36:33;101385.30;;;23.91;23.04
72794;BME280;63436;26.334;50.194;2023-04-01T13:39:07;101388.80;;;22.67;23.11
72794;BME280;63436;26.334;50.194;2023-04-01T13:41:27;101394.52;;;23.34;22.98
72794;BME280;63436;26.334;50.194;2023-04-01T13:43:47;101394.87;;;23.06;23.60
72794;BME280;63436;26.334;50.194;2023-04-01T13:46:31;101395.26;;;25.37;21.91
72794;BME280;63436;26.334;50.194;2023-04-01T13:48:50;101399.37;;;25.07;21.81
72794;BME280;63436;26.334;50.194;2023-04-01T13:51:13;101391.95;;;24.96;22.36
72794;BME280;63436;26.334;50.194;2023-04-01T13:55:58;101393.51;;;23.42;23.31
72794;BME280;63436;26.334;50.194;2023-04-01T14:00:48;101395.56;;;24.72;22.81
72794;BME280;63436;26.334;50.194;2023-04-01T14:03:27;101388.30;;;24.43;22.41
72794;BME280;63436;26.334;50.194;2023-04-01T14:05:46;101392.89;;;24.58;22.09